createdAt,value
2018-12-10T00:00:36.200Z,99826.00
2018-12-10T00:03:10.569Z,99825.00
2018-12-10T00:05:38.644Z,99844.00
2018-12-10T00:08:06.701Z,99843.00
2018-12-10T00:10:41.567Z,99847.00
2018-12-10T00:13:04.857Z,99847.00
2018-12-10T00:15:32.930Z,99846.00
2018-12-10T00:18:01.002Z,99856.00
2018-12-10T00:20:29.059Z,99844.00
2018-12-10T00:22:57.156Z,99855.00
2018-12-10T00:25:25.919Z,99864.00
2018-12-10T00:27:53.982Z,99887.00
2018-12-10T00:30:22.056Z,99865.00
2018-12-10T00:32:50.133Z,99893.00
2018-12-10T00:35:18.198Z,99885.00
2018-12-10T00:37:46.269Z,99881.00
2018-12-10T00:40:14.342Z,99894.00
2018-12-10T00:42:42.408Z,99904.00
2018-12-10T00:45:10.485Z,99907.00
2018-12-10T00:47:38.588Z,99910.00
2018-12-10T00:50:08.109Z,99917.00
2018-12-10T00:52:36.180Z,99921.00
2018-12-10T00:55:04.384Z,99928.00
2018-12-10T00:57:32.447Z,99926.00
2018-12-10T01:00:00.513Z,99933.00
2018-12-10T01:02:28.596Z,99941.00
2018-12-10T01:04:56.885Z,99932.00
2018-12-10T01:07:24.965Z,99950.00
2018-12-10T01:09:53.068Z,99952.00
2018-12-10T01:12:21.128Z,99948.00
2018-12-10T01:14:49.217Z,99968.00
2018-12-10T01:17:17.299Z,99964.00
2018-12-10T01:19:45.397Z,99960.00
2018-12-10T01:22:13.452Z,99971.00
2018-12-10T01:24:41.534Z,99970.00
2018-12-10T01:27:09.592Z,99976.00
2018-12-10T01:29:37.685Z,99996.00
2018-12-10T01:32:05.802Z,99998.00
2018-12-10T01:34:33.865Z,99999.00
2018-12-10T01:37:01.941Z,99991.00
2018-12-10T01:39:30.012Z,100004.00
2018-12-10T01:41:58.273Z,99997.00
2018-12-10T01:44:26.348Z,100004.00
2018-12-10T01:46:54.424Z,100006.00
2018-12-10T01:49:22.485Z,100014.00
2018-12-10T01:51:50.556Z,100014.00
2018-12-10T01:54:19.268Z,100016.00
2018-12-10T01:56:47.332Z,100017.00
2018-12-10T01:59:15.396Z,100023.00
2018-12-10T02:01:43.472Z,100032.00
2018-12-10T02:04:11.542Z,100025.00
2018-12-10T02:06:40.110Z,100032.00
2018-12-10T02:09:08.186Z,100031.00
2018-12-10T02:11:36.254Z,100047.00
2018-12-10T02:14:04.320Z,100041.00
2018-12-10T02:16:32.453Z,100038.00
2018-12-10T02:19:00.536Z,100041.00
2018-12-10T02:21:28.609Z,100050.00
2018-12-10T02:23:56.679Z,100044.00
2018-12-10T02:26:24.852Z,100059.00
2018-12-10T02:28:58.394Z,100065.00
2018-12-10T02:31:26.464Z,100052.00
2018-12-10T02:33:54.615Z,100062.00
2018-12-10T02:36:23.132Z,100077.00
2018-12-10T02:38:51.194Z,100077.00
2018-12-10T02:41:19.272Z,100061.00
2018-12-10T02:43:47.327Z,100068.00
2018-12-10T02:46:15.405Z,100070.00
2018-12-10T02:48:43.475Z,100068.00
2018-12-10T02:51:11.553Z,100077.00
2018-12-10T02:53:39.613Z,100093.00
2018-12-10T02:56:07.682Z,100094.00
2018-12-10T02:58:36.293Z,100091.00
2018-12-10T03:01:04.428Z,100089.00
2018-12-10T03:03:32.493Z,100088.00
2018-12-10T03:06:00.594Z,100091.00
2018-12-10T03:08:28.860Z,100098.00
2018-12-10T03:10:56.965Z,100088.00
2018-12-10T03:13:25.042Z,100097.00
2018-12-10T03:15:53.109Z,100097.00
2018-12-10T03:18:21.169Z,100100.00
2018-12-10T03:20:49.306Z,100111.00
2018-12-10T03:23:17.366Z,100110.00
2018-12-10T03:25:45.450Z,100113.00
2018-12-10T03:28:13.635Z,100117.00
2018-12-10T03:30:42.686Z,100130.00
2018-12-10T03:33:10.758Z,100133.00
2018-12-10T03:35:38.946Z,100134.00
2018-12-10T03:38:07.009Z,100140.00
2018-12-10T03:40:35.268Z,100123.00
2018-12-10T03:43:03.865Z,100132.00
2018-12-10T03:45:31.940Z,100145.00
2018-12-10T03:48:00.009Z,100144.00
2018-12-10T03:50:28.108Z,100154.00
2018-12-10T03:52:56.205Z,100147.00
2018-12-10T03:55:24.285Z,100157.00
2018-12-10T03:57:52.491Z,100156.00
2018-12-10T04:00:20.593Z,100164.00
2018-12-10T04:02:48.728Z,100172.00
2018-12-10T04:05:16.857Z,100170.00
2018-12-10T04:07:44.924Z,100184.00
2018-12-10T04:10:13.016Z,100176.00
2018-12-10T04:12:41.089Z,100182.00
2018-12-10T04:15:09.263Z,100192.00
2018-12-10T04:17:37.425Z,100199.00
2018-12-10T04:20:05.996Z,100200.00
2018-12-10T04:22:34.075Z,100193.00
2018-12-10T04:25:02.138Z,100199.00
2018-12-10T04:27:30.576Z,100210.00
2018-12-10T04:29:58.640Z,100202.00
2018-12-10T04:32:26.720Z,100210.00
2018-12-10T04:34:54.798Z,100213.00
2018-12-10T04:37:22.866Z,100217.00
2018-12-10T04:39:50.928Z,100215.00
2018-12-10T04:42:19.027Z,100227.00
2018-12-10T04:44:47.098Z,100220.00
2018-12-10T04:47:15.173Z,100233.00
2018-12-10T04:49:43.416Z,100241.00
2018-12-10T04:52:11.482Z,100257.00
2018-12-10T04:54:39.548Z,100230.00
2018-12-10T04:57:07.626Z,100236.00
2018-12-10T04:59:35.679Z,100248.00
2018-12-10T05:02:03.745Z,100248.00
2018-12-10T05:04:31.840Z,100249.00
2018-12-10T05:06:59.903Z,100253.00
2018-12-10T05:09:27.978Z,100247.00
2018-12-10T05:11:56.593Z,100256.00
2018-12-10T05:14:24.643Z,100251.00
2018-12-10T05:16:52.733Z,100253.00
2018-12-10T05:19:20.809Z,100265.00
2018-12-10T05:21:48.886Z,100272.00
2018-12-10T05:24:16.935Z,100267.00
2018-12-10T05:26:45.024Z,100272.00
2018-12-10T05:29:13.101Z,100270.00
2018-12-10T05:31:41.167Z,100271.00
2018-12-10T05:34:11.326Z,100269.00
2018-12-10T05:36:39.646Z,100284.00
2018-12-10T05:39:07.712Z,100277.00
2018-12-10T05:41:35.795Z,100286.00
2018-12-10T05:44:03.860Z,100293.00
2018-12-10T05:46:31.933Z,100291.00
2018-12-10T05:49:00.000Z,100292.00
2018-12-10T05:51:28.080Z,100303.00
2018-12-10T05:53:56.136Z,100302.00
2018-12-10T05:56:24.535Z,100305.00
2018-12-10T05:58:52.609Z,100304.00
2018-12-10T06:01:20.671Z,100305.00
2018-12-10T06:03:48.761Z,100310.00
2018-12-10T06:06:16.847Z,100304.00
2018-12-10T06:08:44.901Z,100314.00
2018-12-10T06:11:12.973Z,100319.00
2018-12-10T06:13:41.405Z,100326.00
2018-12-10T06:16:09.509Z,100339.00
2018-12-10T06:18:37.666Z,100321.00
2018-12-10T06:21:05.731Z,100333.00
2018-12-10T06:23:33.791Z,100338.00
2018-12-10T06:26:01.874Z,100340.00
2018-12-10T06:28:29.948Z,100351.00
2018-12-10T06:30:58.025Z,100337.00
2018-12-10T06:33:26.118Z,100365.00
2018-12-10T06:35:54.200Z,100366.00
2018-12-10T06:38:22.256Z,100365.00
2018-12-10T06:40:50.641Z,100381.00
2018-12-10T06:43:18.743Z,100360.00
2018-12-10T06:45:46.809Z,100378.00
2018-12-10T06:48:14.918Z,100377.00
2018-12-10T06:50:42.993Z,100376.00
2018-12-10T06:53:11.052Z,100395.00
2018-12-10T06:55:39.144Z,100404.00
2018-12-10T06:58:07.218Z,100417.00
2018-12-10T07:00:35.382Z,100413.00
2018-12-10T07:03:03.638Z,100410.00
2018-12-10T07:05:31.712Z,100410.00
2018-12-10T07:07:59.760Z,100409.00
2018-12-10T07:10:27.848Z,100413.00
2018-12-10T07:12:55.903Z,100410.00
2018-12-10T07:15:24.349Z,100416.00
2018-12-10T07:17:52.416Z,100424.00
2018-12-10T07:20:20.483Z,100432.00
2018-12-10T07:22:48.553Z,100419.00
2018-12-10T07:25:16.648Z,100415.00
2018-12-10T07:27:44.740Z,100423.00
2018-12-10T07:30:12.836Z,100428.00
2018-12-10T07:32:40.906Z,100434.00
2018-12-10T07:35:08.975Z,100430.00
2018-12-10T07:37:37.041Z,100433.00
2018-12-10T07:40:06.623Z,100445.00
2018-12-10T07:42:34.955Z,100441.00
2018-12-10T07:45:03.214Z,100431.00
2018-12-10T07:47:31.311Z,100427.00
2018-12-10T07:49:59.380Z,100442.00
2018-12-10T07:52:27.460Z,100432.00
2018-12-10T07:54:55.549Z,100449.00
2018-12-10T07:57:23.619Z,100447.00
2018-12-10T07:59:51.739Z,100457.00
2018-12-10T08:02:19.833Z,100458.00
2018-12-10T08:04:47.957Z,100445.00
2018-12-10T08:07:16.043Z,100458.00
2018-12-10T08:09:44.143Z,100456.00
2018-12-10T08:12:12.191Z,100446.00
2018-12-10T08:14:40.262Z,100460.00
2018-12-10T08:17:08.718Z,100464.00
2018-12-10T08:19:36.794Z,100467.00
2018-12-10T08:22:04.863Z,100464.00
2018-12-10T08:24:32.934Z,100466.00
2018-12-10T08:27:01.012Z,100481.00
2018-12-10T08:29:29.086Z,100476.00
2018-12-10T08:31:57.434Z,100477.00
2018-12-10T08:34:25.524Z,100469.00
2018-12-10T08:36:55.655Z,100466.00
2018-12-10T08:39:23.696Z,100471.00
2018-12-10T08:41:51.771Z,100472.00
2018-12-10T08:44:19.835Z,100476.00
2018-12-10T08:46:47.953Z,100471.00
2018-12-10T08:49:16.224Z,100481.00
2018-12-10T08:51:44.353Z,100475.00
2018-12-10T08:54:12.504Z,100478.00
2018-12-10T08:56:40.721Z,100473.00
2018-12-10T08:59:08.806Z,100486.00
2018-12-10T09:01:36.875Z,100484.00
2018-12-10T09:04:04.946Z,100484.00
2018-12-10T09:06:33.017Z,100489.00
2018-12-10T09:09:01.139Z,100485.00
2018-12-10T09:11:29.196Z,100497.00
2018-12-10T09:13:57.260Z,100496.00
2018-12-10T09:16:25.721Z,100500.00
2018-12-10T09:18:54.347Z,100500.00
2018-12-10T09:21:22.477Z,100518.00
2018-12-10T09:23:50.616Z,100503.00
2018-12-10T09:26:18.979Z,100502.00
2018-12-10T09:28:47.212Z,100508.00
2018-12-10T09:31:15.374Z,100518.00
2018-12-10T09:33:43.449Z,100526.00
2018-12-10T09:36:11.516Z,100518.00
2018-12-10T09:38:39.605Z,100529.00
2018-12-10T09:41:07.668Z,100512.00
2018-12-10T09:43:35.753Z,100515.00
2018-12-10T09:46:03.848Z,100524.00
2018-12-10T09:48:31.895Z,100524.00
2018-12-10T09:50:59.973Z,100538.00
2018-12-10T09:53:28.044Z,100527.00
2018-12-10T09:55:56.119Z,100519.00
2018-12-10T09:58:24.185Z,100538.00
2018-12-10T10:00:52.641Z,100533.00
2018-12-10T10:03:20.711Z,100543.00
2018-12-10T10:05:48.785Z,100535.00
2018-12-10T10:08:16.857Z,100548.00
2018-12-10T10:10:44.939Z,100547.00
2018-12-10T10:13:13.005Z,100555.00
2018-12-10T10:15:41.081Z,100546.00
2018-12-10T10:18:09.152Z,100545.00
2018-12-10T10:20:37.251Z,100539.00
2018-12-10T10:23:05.501Z,100553.00
2018-12-10T10:25:33.568Z,100547.00
2018-12-10T10:28:01.642Z,100565.00
2018-12-10T10:30:29.726Z,100559.00
2018-12-10T10:32:57.796Z,100556.00
2018-12-10T10:35:25.899Z,100553.00
2018-12-10T10:37:53.993Z,100558.00
2018-12-10T10:40:22.113Z,100566.00
2018-12-10T10:42:50.214Z,100570.00
2018-12-10T10:45:18.349Z,100547.00
2018-12-10T10:47:46.429Z,100561.00
2018-12-10T10:50:14.500Z,100555.00
2018-12-10T10:52:42.586Z,100561.00
2018-12-10T10:55:11.129Z,100561.00
2018-12-10T10:57:39.212Z,100567.00
2018-12-10T11:00:13.882Z,100570.00
2018-12-10T11:02:42.039Z,100557.00
2018-12-10T11:05:10.106Z,100550.00
2018-12-10T11:07:38.250Z,100559.00
2018-12-10T11:10:13.458Z,100560.00
2018-12-10T11:12:41.548Z,100566.00
2018-12-10T11:15:09.615Z,100563.00
2018-12-10T11:17:38.961Z,100563.00
2018-12-10T11:20:09.089Z,100560.00
2018-12-10T11:22:37.245Z,100557.00
2018-12-10T11:25:05.904Z,100547.00
2018-12-10T11:27:34.254Z,100557.00
2018-12-10T11:30:02.321Z,100558.00
2018-12-10T11:32:30.401Z,100568.00
2018-12-10T11:34:58.501Z,100563.00
2018-12-10T11:37:26.573Z,100561.00
2018-12-10T11:39:54.649Z,100561.00
2018-12-10T11:42:22.759Z,100561.00
2018-12-10T11:44:50.813Z,100560.00
2018-12-10T11:47:18.871Z,100547.00
2018-12-10T11:49:47.057Z,100554.00
2018-12-10T11:52:15.114Z,100560.00
2018-12-10T11:54:43.185Z,100564.00
2018-12-10T11:57:11.269Z,100557.00
2018-12-10T11:59:39.738Z,100568.00
2018-12-10T12:02:07.832Z,100552.00
2018-12-10T12:04:35.986Z,100565.00
2018-12-10T12:07:04.056Z,100552.00
2018-12-10T12:09:32.127Z,100555.00
2018-12-10T12:12:00.532Z,100559.00
2018-12-10T12:14:28.605Z,100563.00
2018-12-10T12:16:56.699Z,100562.00
2018-12-10T12:19:24.769Z,100552.00
2018-12-10T12:21:52.839Z,100565.00
2018-12-10T12:24:20.949Z,100555.00
2018-12-10T12:26:49.028Z,100552.00
2018-12-10T12:29:17.114Z,100547.00
2018-12-10T12:31:45.189Z,100551.00
2018-12-10T12:34:13.285Z,100552.00
2018-12-10T12:36:41.361Z,100556.00
2018-12-10T12:39:09.443Z,100538.00
2018-12-10T12:41:37.529Z,100545.00
2018-12-10T12:44:05.605Z,100554.00
2018-12-10T12:46:33.696Z,100560.00
2018-12-10T12:49:01.789Z,100547.00
2018-12-10T12:51:29.861Z,100551.00
2018-12-10T12:53:57.922Z,100540.00
2018-12-10T12:56:26.329Z,100538.00
2018-12-10T12:58:54.415Z,100548.00
2018-12-10T13:01:22.489Z,100565.00
2018-12-10T13:03:50.569Z,100559.00
2018-12-10T13:06:18.631Z,100552.00
2018-12-10T13:08:46.701Z,100566.00
2018-12-10T13:11:14.891Z,100553.00
2018-12-10T13:13:43.059Z,100542.00
2018-12-10T13:16:11.124Z,100544.00
2018-12-10T13:18:39.689Z,100547.00
2018-12-10T13:21:07.778Z,100542.00
2018-12-10T13:23:35.064Z,100552.00
2018-12-10T13:26:03.278Z,100570.00
2018-12-10T13:28:31.348Z,100557.00
2018-12-10T13:30:59.425Z,100543.00
2018-12-10T13:33:27.505Z,100544.00
2018-12-10T13:35:56.451Z,100545.00
2018-12-10T13:38:24.731Z,100553.00
2018-12-10T13:40:52.863Z,100563.00
2018-12-10T13:43:20.933Z,100562.00
2018-12-10T13:45:49.022Z,100557.00
2018-12-10T13:48:17.217Z,100574.00
2018-12-10T13:50:45.285Z,100567.00
2018-12-10T13:53:13.351Z,100564.00
2018-12-10T13:55:41.633Z,100564.00
2018-12-10T13:58:09.747Z,100561.00
2018-12-10T14:00:37.853Z,100573.00
2018-12-10T14:03:06.425Z,100566.00
2018-12-10T14:05:34.493Z,100565.00
2018-12-10T14:08:02.565Z,100570.00
2018-12-10T14:10:30.650Z,100567.00
2018-12-10T14:12:58.712Z,100588.00
2018-12-10T14:15:26.801Z,100588.00
2018-12-10T14:17:54.892Z,100570.00
2018-12-10T14:20:22.951Z,100580.00
2018-12-10T14:22:51.013Z,100573.00
2018-12-10T14:25:24.269Z,100593.00
2018-12-10T14:27:52.898Z,100581.00
2018-12-10T14:30:20.977Z,100582.00
2018-12-10T14:32:49.056Z,100578.00
2018-12-10T14:35:17.131Z,100571.00
2018-12-10T14:37:45.204Z,100577.00
2018-12-10T14:40:13.489Z,100568.00
2018-12-10T14:42:50.662Z,100573.00
2018-12-10T14:45:19.204Z,100574.00
2018-12-10T14:47:51.660Z,100580.00
2018-12-10T14:50:19.750Z,100580.00
2018-12-10T14:52:47.931Z,100577.00
2018-12-10T14:55:16.133Z,100583.00
2018-12-10T14:57:44.201Z,100578.00
2018-12-10T15:00:12.478Z,100588.00
2018-12-10T15:02:40.527Z,100583.00
2018-12-10T15:05:08.596Z,100574.00
2018-12-10T15:07:36.716Z,100583.00
2018-12-10T15:10:05.998Z,100576.00
2018-12-10T15:12:34.065Z,100578.00
2018-12-10T15:15:02.152Z,100577.00
2018-12-10T15:17:30.220Z,100573.00
2018-12-10T15:19:58.300Z,100570.00
2018-12-10T15:22:26.384Z,100568.00
2018-12-10T15:24:54.453Z,100577.00
2018-12-10T15:27:22.520Z,100580.00
2018-12-10T15:29:50.838Z,100573.00
2018-12-10T15:32:18.899Z,100563.00
2018-12-10T15:34:46.963Z,100577.00
2018-12-10T15:37:15.065Z,100578.00
2018-12-10T15:39:43.159Z,100574.00
2018-12-10T15:42:11.250Z,100575.00
2018-12-10T15:44:39.360Z,100576.00
2018-12-10T15:47:07.424Z,100563.00
2018-12-10T15:49:35.506Z,100569.00
2018-12-10T15:52:03.793Z,100562.00
2018-12-10T15:54:31.870Z,100546.00
2018-12-10T15:56:59.966Z,100539.00
2018-12-10T15:59:28.064Z,100554.00
2018-12-10T16:01:56.161Z,100556.00
2018-12-10T16:04:24.225Z,100556.00
2018-12-10T16:06:52.322Z,100556.00
2018-12-10T16:09:20.379Z,100548.00
2018-12-10T16:11:48.453Z,100560.00
2018-12-10T16:14:17.063Z,100551.00
2018-12-10T16:16:45.133Z,100568.00
2018-12-10T16:19:13.221Z,100561.00
2018-12-10T16:21:41.315Z,100556.00
2018-12-10T16:24:09.378Z,100548.00
2018-12-10T16:26:37.450Z,100551.00
2018-12-10T16:29:05.531Z,100556.00
2018-12-10T16:31:34.076Z,100573.00
2018-12-10T16:34:02.140Z,100554.00
2018-12-10T16:36:30.516Z,100565.00
2018-12-10T16:38:58.575Z,100558.00
2018-12-10T16:41:26.669Z,100562.00
2018-12-10T16:43:54.758Z,100564.00
2018-12-10T16:46:22.824Z,100566.00
2018-12-10T16:48:50.900Z,100567.00
2018-12-10T16:51:18.980Z,100568.00
2018-12-10T16:53:47.036Z,100555.00
2018-12-10T16:56:15.117Z,100561.00
2018-12-10T16:58:43.471Z,100556.00
2018-12-10T17:01:11.544Z,100564.00
2018-12-10T17:03:39.614Z,100553.00
2018-12-10T17:06:07.686Z,100559.00
2018-12-10T17:08:35.778Z,100553.00
2018-12-10T17:11:03.850Z,100566.00
2018-12-10T17:13:31.928Z,100567.00
2018-12-10T17:16:00.001Z,100566.00
2018-12-10T17:18:28.058Z,100562.00
2018-12-10T17:20:56.447Z,100562.00
2018-12-10T17:23:24.513Z,100555.00
2018-12-10T17:25:52.605Z,100555.00
2018-12-10T17:28:20.690Z,100553.00
2018-12-10T17:30:48.761Z,100557.00
2018-12-10T17:33:17.084Z,100561.00
2018-12-10T17:35:45.193Z,100554.00
2018-12-10T17:38:13.287Z,100565.00
2018-12-10T17:40:41.350Z,100565.00
2018-12-10T17:43:09.710Z,100558.00
2018-12-10T17:45:37.781Z,100558.00
2018-12-10T17:48:05.858Z,100556.00
2018-12-10T17:50:33.948Z,100549.00
2018-12-10T17:53:02.009Z,100554.00
2018-12-10T17:55:30.081Z,100554.00
2018-12-10T17:57:58.161Z,100557.00
2018-12-10T18:00:26.212Z,100558.00
2018-12-10T18:02:54.286Z,100553.00
2018-12-10T18:05:22.838Z,100545.00
2018-12-10T18:07:50.901Z,100544.00
2018-12-10T18:10:18.989Z,100541.00
2018-12-10T18:12:47.190Z,100549.00
2018-12-10T18:15:15.277Z,100534.00
2018-12-10T18:17:43.330Z,100535.00
2018-12-10T18:20:11.414Z,100536.00
2018-12-10T18:22:39.479Z,100529.00
2018-12-10T18:25:07.531Z,100525.00
2018-12-10T18:27:35.915Z,100531.00
2018-12-10T18:30:05.169Z,100525.00
2018-12-10T18:32:33.253Z,100519.00
2018-12-10T18:35:02.264Z,100533.00
2018-12-10T18:37:31.062Z,100520.00
2018-12-10T18:39:59.173Z,100530.00
2018-12-10T18:42:27.302Z,100517.00
2018-12-10T18:44:55.381Z,100529.00
2018-12-10T18:47:23.449Z,100517.00
2018-12-10T18:49:51.834Z,100524.00
2018-12-10T18:52:19.910Z,100517.00
2018-12-10T18:54:47.992Z,100514.00
2018-12-10T18:57:16.872Z,100524.00
2018-12-10T18:59:44.948Z,100519.00
2018-12-10T19:02:13.022Z,100514.00
2018-12-10T19:04:41.091Z,100510.00
2018-12-10T19:07:09.165Z,100517.00
2018-12-10T19:09:37.232Z,100532.00
2018-12-10T19:12:07.342Z,100507.00
2018-12-10T19:14:35.405Z,100522.00
2018-12-10T19:17:03.562Z,100529.00
2018-12-10T19:19:31.738Z,100526.00
2018-12-10T19:21:59.835Z,100523.00
2018-12-10T19:24:27.999Z,100518.00
2018-12-10T19:26:56.121Z,100529.00
2018-12-10T19:29:24.197Z,100515.00
2018-12-10T19:31:52.256Z,100522.00
2018-12-10T19:34:20.806Z,100531.00
2018-12-10T19:36:49.375Z,100529.00
2018-12-10T19:39:17.446Z,100527.00
2018-12-10T19:41:45.531Z,100533.00
2018-12-10T19:44:13.606Z,100518.00
2018-12-10T19:46:41.693Z,100527.00
2018-12-10T19:49:09.776Z,100529.00
2018-12-10T19:51:37.911Z,100525.00
2018-12-10T19:54:05.978Z,100525.00
2018-12-10T19:56:34.486Z,100514.00
2018-12-10T19:59:02.667Z,100521.00
2018-12-10T20:01:30.743Z,100515.00
2018-12-10T20:03:58.836Z,100522.00
2018-12-10T20:06:31.141Z,100517.00
2018-12-10T20:08:59.717Z,100519.00
2018-12-10T20:11:27.793Z,100518.00
2018-12-10T20:13:55.871Z,100514.00
2018-12-10T20:16:24.365Z,100521.00
2018-12-10T20:18:52.420Z,100513.00
2018-12-10T20:21:20.603Z,100520.00
2018-12-10T20:23:48.755Z,100513.00
2018-12-10T20:26:16.823Z,100511.00
2018-12-10T20:28:44.918Z,100510.00
2018-12-10T20:31:13.966Z,100515.00
2018-12-10T20:33:42.074Z,100515.00
2018-12-10T20:36:10.223Z,100525.00
2018-12-10T20:38:38.516Z,100518.00
2018-12-10T20:41:06.601Z,100521.00
2018-12-10T20:43:34.674Z,100526.00
2018-12-10T20:46:02.747Z,100530.00
2018-12-10T20:48:30.828Z,100538.00
2018-12-10T20:50:58.899Z,100543.00
2018-12-10T20:53:26.963Z,100531.00
2018-12-10T20:55:55.046Z,100538.00
2018-12-10T20:58:23.109Z,100532.00
2018-12-10T21:00:51.513Z,100547.00
2018-12-10T21:03:19.581Z,100535.00
2018-12-10T21:05:53.148Z,100522.00
2018-12-10T21:08:21.236Z,100545.00
2018-12-10T21:10:50.148Z,100542.00
2018-12-10T21:13:18.221Z,100541.00
2018-12-10T21:15:46.295Z,100551.00
2018-12-10T21:18:14.446Z,100546.00
2018-12-10T21:20:42.553Z,100557.00
2018-12-10T21:23:10.617Z,100546.00
2018-12-10T21:25:38.682Z,100556.00
2018-12-10T21:28:06.754Z,100540.00
2018-12-10T21:30:34.841Z,100560.00
2018-12-10T21:33:02.925Z,100545.00
2018-12-10T21:35:31.023Z,100557.00
2018-12-10T21:37:59.103Z,100554.00
2018-12-10T21:40:27.402Z,100548.00
2018-12-10T21:42:55.513Z,100558.00
2018-12-10T21:45:23.615Z,100552.00
2018-12-10T21:47:51.677Z,100541.00
2018-12-10T21:50:19.771Z,100542.00
2018-12-10T21:52:47.834Z,100537.00
2018-12-10T21:55:17.043Z,100545.00
2018-12-10T21:57:45.209Z,100552.00
2018-12-10T22:00:13.285Z,100546.00
2018-12-10T22:02:41.344Z,100542.00
2018-12-10T22:05:09.725Z,100545.00
2018-12-10T22:07:37.793Z,100544.00
2018-12-10T22:10:07.597Z,100550.00
2018-12-10T22:12:35.677Z,100555.00
2018-12-10T22:15:04.630Z,100539.00
2018-12-10T22:17:32.799Z,100540.00
2018-12-10T22:20:00.897Z,100541.00
2018-12-10T22:22:28.977Z,100553.00
2018-12-10T22:24:57.053Z,100559.00
2018-12-10T22:27:25.491Z,100551.00
2018-12-10T22:29:53.587Z,100550.00
2018-12-10T22:32:21.660Z,100546.00
2018-12-10T22:34:49.737Z,100551.00
2018-12-10T22:37:17.813Z,100548.00
2018-12-10T22:39:45.881Z,100545.00
2018-12-10T22:42:14.420Z,100548.00
2018-12-10T22:44:43.290Z,100554.00
2018-12-10T22:47:11.544Z,100538.00
2018-12-10T22:49:39.654Z,100543.00
2018-12-10T22:52:07.904Z,100553.00
2018-12-10T22:54:35.988Z,100554.00
2018-12-10T22:57:04.073Z,100536.00
2018-12-10T22:59:32.148Z,100552.00
2018-12-10T23:02:00.217Z,100550.00
2018-12-10T23:04:28.294Z,100547.00
2018-12-10T23:06:56.365Z,100546.00
2018-12-10T23:09:24.440Z,100543.00
2018-12-10T23:11:52.535Z,100529.00
2018-12-10T23:14:20.603Z,100537.00
2018-12-10T23:16:48.665Z,100543.00
2018-12-10T23:19:16.773Z,100532.00
2018-12-10T23:21:44.841Z,100534.00
2018-12-10T23:24:12.905Z,100539.00
2018-12-10T23:26:40.995Z,100530.00
2018-12-10T23:29:09.065Z,100546.00
2018-12-10T23:31:37.137Z,100538.00
2018-12-10T23:34:05.233Z,100531.00
2018-12-10T23:36:33.310Z,100539.00
2018-12-10T23:39:01.372Z,100546.00
2018-12-10T23:41:31.097Z,100535.00
2018-12-10T23:43:59.509Z,100544.00
2018-12-10T23:46:27.577Z,100545.00
2018-12-10T23:48:55.660Z,100542.00
2018-12-10T23:51:23.743Z,100552.00
2018-12-10T23:53:51.800Z,100548.00
2018-12-10T23:56:20.099Z,100548.00
2018-12-10T23:58:48.212Z,100552.00
